Locustville, Virginia
Current Conditions -  °F | °C
As of 3:55 AM on Wednesday 26 Nov 2014 (Local Time) from KMFV Reporting Station
Light Rain Light Rain  
Wind Chill: 39°   Ceiling: 3000
Heat Index: 45°   Visibility: 5mi
Dew Point: 39°   Wind: 12mph
Humidity: 81%   Direction: 40°NE
Pressure: 30.04"   Gusts: 22mph
Location:  37.65°N, 75.68°W
Report Text: KMFV 260855Z AUTO 04010G19KT 5SM -RA OVC030 07/04 A3004 RMK AO2 P0003
Loading
Personal Weather Stations






























Interactive Weather Map New forecast layout! Learn more

10-Day Weather Forecast

Advertisements
Track Severe Weather on mobile